Centenary, Louisiana
Current Conditions -  °F | °C
As of 2:53 PM on Friday 31 Oct 2014 (Local Time) from KDTN Reporting Station
Few Clouds Few Clouds  
Wind Chill: 68°   Ceiling: Unl
Heat Index: 68°   Visibility: 10mi
Dew Point: 44°   Wind: 10mph
Humidity: 42%   Direction: 330°NNW
Pressure: 30.19"   Gusts: 20mph
Location:  32.4835°N, 93.7335°W
Report Text: KDTN 311953Z 33009G17KT 10SM FEW050 20/07 A3019 RMK AO2 SLP221 T02000067
Loading
Personal Weather Stations






























Interactive Weather Map
Tropical Storm Tracking
New forecast layout! Learn more

10-Day Weather Forecast

Advertisements
Track Severe Weather on mobile